sensor_id;sensor_type;location;lat;lon;timestamp;pressure;altitude;pressure_sealevel;temperature;humidity
60654;BME280;46476;53.614;10.048;2022-11-12T00:00:50;102839.03;;;15.08;57.96
60654;BME280;46476;53.614;10.048;2022-11-12T00:03:16;102839.16;;;15.06;58.00
60654;BME280;46476;53.614;10.048;2022-11-12T00:05:44;102840.03;;;15.07;58.17
60654;BME280;46476;53.614;10.048;2022-11-12T00:08:10;102843.63;;;15.07;58.10
60654;BME280;46476;53.614;10.048;2022-11-12T00:10:35;102836.41;;;15.06;58.12
60654;BME280;46476;53.614;10.048;2022-11-12T00:13:01;102840.03;;;15.07;58.00
60654;BME280;46476;53.614;10.048;2022-11-12T00:15:26;102857.25;;;15.07;57.93
60654;BME280;46476;53.614;10.048;2022-11-12T00:17:52;102854.66;;;15.06;57.92
60654;BME280;46476;53.614;10.048;2022-11-12T00:20:17;102853.69;;;15.07;57.72
60654;BME280;46476;53.614;10.048;2022-11-12T00:22:43;102841.03;;;15.06;57.95
60654;BME280;46476;53.614;10.048;2022-11-12T00:25:08;102842.91;;;15.05;57.56
60654;BME280;46476;53.614;10.048;2022-11-12T00:27:34;102845.72;;;15.04;57.98
60654;BME280;46476;53.614;10.048;2022-11-12T00:30:00;102842.91;;;15.05;58.15
60654;BME280;46476;53.614;10.048;2022-11-12T00:32:26;102835.09;;;15.00;57.87
60654;BME280;46476;53.614;10.048;2022-11-12T00:34:51;102832.50;;;14.99;57.99
60654;BME280;46476;53.614;10.048;2022-11-12T00:37:16;102829.63;;;15.00;57.93
60654;BME280;46476;53.614;10.048;2022-11-12T00:39:43;102835.84;;;15.02;57.86
60654;BME280;46476;53.614;10.048;2022-11-12T00:42:08;102839.56;;;15.01;57.93
60654;BME280;46476;53.614;10.048;2022-11-12T00:44:34;102839.69;;;15.00;57.53
60654;BME280;46476;53.614;10.048;2022-11-12T00:46:59;102835.09;;;15.00;57.63
60654;BME280;46476;53.614;10.048;2022-11-12T00:49:25;102833.34;;;14.99;57.72
60654;BME280;46476;53.614;10.048;2022-11-12T00:51:50;102831.50;;;15.00;57.61
60654;BME280;46476;53.614;10.048;2022-11-12T00:54:15;102828.91;;;14.98;57.46
60654;BME280;46476;53.614;10.048;2022-11-12T00:56:41;102827.41;;;14.94;57.36
60654;BME280;46476;53.614;10.048;2022-11-12T00:59:07;102823.97;;;14.92;57.59
60654;BME280;46476;53.614;10.048;2022-11-12T01:01:32;102831.28;;;14.92;57.33
60654;BME280;46476;53.614;10.048;2022-11-12T01:03:58;102835.75;;;14.93;57.23
60654;BME280;46476;53.614;10.048;2022-11-12T01:06:24;102830.16;;;14.94;57.19
60654;BME280;46476;53.614;10.048;2022-11-12T01:08:50;102831.88;;;14.95;56.93
60654;BME280;46476;53.614;10.048;2022-11-12T01:11:25;102835.50;;;14.96;56.87
60654;BME280;46476;53.614;10.048;2022-11-12T01:13:56;102834.63;;;14.95;56.75
60654;BME280;46476;53.614;10.048;2022-11-12T01:16:25;102823.69;;;14.95;56.70
60654;BME280;46476;53.614;10.048;2022-11-12T01:18:56;102824.59;;;14.96;56.48
60654;BME280;46476;53.614;10.048;2022-11-12T01:21:23;102824.59;;;14.96;56.62
60654;BME280;46476;53.614;10.048;2022-11-12T01:23:49;102824.69;;;14.94;56.61
60654;BME280;46476;53.614;10.048;2022-11-12T01:26:16;102824.69;;;14.94;56.70
60654;BME280;46476;53.614;10.048;2022-11-12T01:28:42;102829.16;;;14.95;56.58
60654;BME280;46476;53.614;10.048;2022-11-12T01:31:10;102838.22;;;14.96;56.33
60654;BME280;46476;53.614;10.048;2022-11-12T01:33:35;102838.09;;;14.97;56.46
60654;BME280;46476;53.614;10.048;2022-11-12T01:36:01;102826.19;;;14.98;56.33
60654;BME280;46476;53.614;10.048;2022-11-12T01:38:26;102832.50;;;14.99;56.40
60654;BME280;46476;53.614;10.048;2022-11-12T01:40:51;102837.09;;;14.98;56.24
60654;BME280;46476;53.614;10.048;2022-11-12T01:43:17;102835.50;;;14.96;56.44
60654;BME280;46476;53.614;10.048;2022-11-12T01:45:45;102830.16;;;14.94;56.18
60654;BME280;46476;53.614;10.048;2022-11-12T01:48:34;102839.22;;;14.95;56.30
60654;BME280;46476;53.614;10.048;2022-11-12T01:51:02;102842.19;;;14.92;56.36
60654;BME280;46476;53.614;10.048;2022-11-12T01:53:31;102848.53;;;14.92;56.46
60654;BME280;46476;53.614;10.048;2022-11-12T01:55:59;102847.63;;;14.92;56.72
60654;BME280;46476;53.614;10.048;2022-11-12T01:58:27;102847.63;;;14.92;56.71
60654;BME280;46476;53.614;10.048;2022-11-12T02:00:54;102851.25;;;14.92;56.61
60654;BME280;46476;53.614;10.048;2022-11-12T02:03:22;102850.38;;;14.92;56.51
60654;BME280;46476;53.614;10.048;2022-11-12T02:05:52;102836.63;;;14.93;56.34
60654;BME280;46476;53.614;10.048;2022-11-12T02:08:20;102836.72;;;14.92;56.09
60654;BME280;46476;53.614;10.048;2022-11-12T02:10:46;102831.16;;;14.93;55.81
60654;BME280;46476;53.614;10.048;2022-11-12T02:13:12;102829.28;;;14.94;55.98
60654;BME280;46476;53.614;10.048;2022-11-12T02:15:57;102822.72;;;14.96;55.44
60654;BME280;46476;53.614;10.048;2022-11-12T02:18:22;102825.31;;;14.98;55.67
60654;BME280;46476;53.614;10.048;2022-11-12T02:21:02;102827.19;;;14.97;55.35
60654;BME280;46476;53.614;10.048;2022-11-12T02:23:28;102820.97;;;14.95;55.32
60654;BME280;46476;53.614;10.048;2022-11-12T02:25:58;102814.06;;;14.91;55.47
60654;BME280;46476;53.614;10.048;2022-11-12T02:28:24;102816.03;;;14.89;55.26
60654;BME280;46476;53.614;10.048;2022-11-12T02:30:49;102818.75;;;14.89;55.38
60654;BME280;46476;53.614;10.048;2022-11-12T02:33:15;102812.59;;;14.87;55.42
60654;BME280;46476;53.614;10.048;2022-11-12T02:35:40;102819.31;;;14.83;55.18
60654;BME280;46476;53.614;10.048;2022-11-12T02:38:07;102806.78;;;14.80;55.39
60654;BME280;46476;53.614;10.048;2022-11-12T02:40:32;102813.38;;;14.78;55.37
60654;BME280;46476;53.614;10.048;2022-11-12T02:42:58;102818.44;;;14.71;55.54
60654;BME280;46476;53.614;10.048;2022-11-12T02:45:24;102823.53;;;14.64;55.73
60654;BME280;46476;53.614;10.048;2022-11-12T02:47:49;102825.53;;;14.62;55.86
60654;BME280;46476;53.614;10.048;2022-11-12T02:50:15;102829.88;;;14.65;55.65
60654;BME280;46476;53.614;10.048;2022-11-12T02:52:40;102823.78;;;14.61;55.85
60654;BME280;46476;53.614;10.048;2022-11-12T02:55:07;102829.50;;;14.58;55.71
60654;BME280;46476;53.614;10.048;2022-11-12T02:57:34;102844.13;;;14.57;55.71
60654;BME280;46476;53.614;10.048;2022-11-12T02:59:59;102831.47;;;14.56;55.81
60654;BME280;46476;53.614;10.048;2022-11-12T03:02:24;102833.34;;;14.56;55.43
60654;BME280;46476;53.614;10.048;2022-11-12T03:04:50;102827.28;;;14.41;55.81
60654;BME280;46476;53.614;10.048;2022-11-12T03:07:15;102822.81;;;14.28;55.77
60654;BME280;46476;53.614;10.048;2022-11-12T03:09:40;102835.09;;;14.23;56.07
60654;BME280;46476;53.614;10.048;2022-11-12T03:12:06;102837.19;;;14.19;56.44
60654;BME280;46476;53.614;10.048;2022-11-12T03:14:31;102831.03;;;14.17;56.32
60654;BME280;46476;53.614;10.048;2022-11-12T03:16:56;102855.78;;;14.25;56.19
60654;BME280;46476;53.614;10.048;2022-11-12T03:19:22;102849.84;;;14.31;56.01
60654;BME280;46476;53.614;10.048;2022-11-12T03:21:47;102834.97;;;14.35;55.86
60654;BME280;46476;53.614;10.048;2022-11-12T03:24:12;102849.34;;;14.38;55.67
60654;BME280;46476;53.614;10.048;2022-11-12T03:26:38;102848.34;;;14.39;55.47
60654;BME280;46476;53.614;10.048;2022-11-12T03:29:03;102853.19;;;14.35;55.62
60654;BME280;46476;53.614;10.048;2022-11-12T03:31:28;102863.97;;;14.36;55.52
60654;BME280;46476;53.614;10.048;2022-11-12T03:33:54;102860.34;;;14.36;55.55
60654;BME280;46476;53.614;10.048;2022-11-12T03:36:19;102849.59;;;14.34;55.31
60654;BME280;46476;53.614;10.048;2022-11-12T03:38:44;102848.84;;;14.32;55.43
60654;BME280;46476;53.614;10.048;2022-11-12T03:41:10;102842.66;;;14.30;55.34
60654;BME280;46476;53.614;10.048;2022-11-12T03:43:35;102855.53;;;14.28;55.34
60654;BME280;46476;53.614;10.048;2022-11-12T03:46:00;102841.94;;;14.17;55.80
60654;BME280;46476;53.614;10.048;2022-11-12T03:48:26;102844.66;;;14.17;55.74
60654;BME280;46476;53.614;10.048;2022-11-12T03:50:51;102846.50;;;14.16;55.69
60654;BME280;46476;53.614;10.048;2022-11-12T03:53:17;102854.28;;;14.10;55.98
60654;BME280;46476;53.614;10.048;2022-11-12T03:55:42;102866.94;;;14.11;55.97
60654;BME280;46476;53.614;10.048;2022-11-12T03:58:08;102850.59;;;14.11;55.84
60654;BME280;46476;53.614;10.048;2022-11-12T04:00:33;102854.16;;;14.11;55.79
60654;BME280;46476;53.614;10.048;2022-11-12T04:02:58;102868.66;;;14.00;55.89
60654;BME280;46476;53.614;10.048;2022-11-12T04:05:24;102870.38;;;13.90;56.27
60654;BME280;46476;53.614;10.048;2022-11-12T04:08:15;102856.50;;;13.93;56.17
60654;BME280;46476;53.614;10.048;2022-11-12T04:11:10;102858.25;;;13.94;55.82
60654;BME280;46476;53.614;10.048;2022-11-12T04:13:40;102876.59;;;13.92;55.97
60654;BME280;46476;53.614;10.048;2022-11-12T04:16:09;102873.09;;;13.90;55.80
60654;BME280;46476;53.614;10.048;2022-11-12T04:18:55;102869.75;;;13.86;56.10
60654;BME280;46476;53.614;10.048;2022-11-12T04:21:42;102863.19;;;13.78;56.21
60654;BME280;46476;53.614;10.048;2022-11-12T04:27:21;102861.84;;;13.48;57.26
60654;BME280;46476;53.614;10.048;2022-11-12T04:29:48;102864.88;;;13.56;56.91
60654;BME280;46476;53.614;10.048;2022-11-12T04:32:35;102867.03;;;13.40;57.19
60654;BME280;46476;53.614;10.048;2022-11-12T04:35:01;102869.41;;;13.44;57.23
60654;BME280;46476;53.614;10.048;2022-11-12T04:37:29;102876.84;;;13.53;56.81
60654;BME280;46476;53.614;10.048;2022-11-12T04:40:13;102868.09;;;13.61;56.63
60654;BME280;46476;53.614;10.048;2022-11-12T04:42:58;102860.78;;;13.62;56.17
60654;BME280;46476;53.614;10.048;2022-11-12T04:45:42;102865.00;;;13.55;56.20
60654;BME280;46476;53.614;10.048;2022-11-12T04:48:09;102870.44;;;13.30;56.80
60654;BME280;46476;53.614;10.048;2022-11-12T04:50:34;102863.69;;;13.12;57.26
60654;BME280;46476;53.614;10.048;2022-11-12T04:53:00;102866.75;;;13.07;57.56
60654;BME280;46476;53.614;10.048;2022-11-12T04:55:25;102875.94;;;13.17;57.33
60654;BME280;46476;53.614;10.048;2022-11-12T04:57:51;102879.81;;;13.26;57.03
60654;BME280;46476;53.614;10.048;2022-11-12T05:00:16;102874.25;;;13.28;56.83
60654;BME280;46476;53.614;10.048;2022-11-12T05:02:41;102874.13;;;13.29;56.90
60654;BME280;46476;53.614;10.048;2022-11-12T05:05:07;102872.06;;;13.33;56.48
60654;BME280;46476;53.614;10.048;2022-11-12T05:07:32;102868.13;;;13.37;56.00
60654;BME280;46476;53.614;10.048;2022-11-12T05:09:58;102870.09;;;13.35;56.24
60654;BME280;46476;53.614;10.048;2022-11-12T05:12:23;102889.03;;;13.12;56.66
60654;BME280;46476;53.614;10.048;2022-11-12T05:14:48;102877.56;;;12.96;57.05
60654;BME280;46476;53.614;10.048;2022-11-12T05:17:14;102877.94;;;13.02;56.92
60654;BME280;46476;53.614;10.048;2022-11-12T05:19:39;102868.13;;;13.13;56.46
60654;BME280;46476;53.614;10.048;2022-11-12T05:22:04;102875.81;;;13.19;56.47
60654;BME280;46476;53.614;10.048;2022-11-12T05:26:59;102876.28;;;12.88;56.59
60654;BME280;46476;53.614;10.048;2022-11-12T05:29:25;102874.66;;;12.86;56.94
60654;BME280;46476;53.614;10.048;2022-11-12T05:31:50;102876.81;;;12.94;56.65
60654;BME280;46476;53.614;10.048;2022-11-12T05:34:15;102877.09;;;13.02;56.47
60654;BME280;46476;53.614;10.048;2022-11-12T05:36:41;102871.66;;;13.02;56.07
60654;BME280;46476;53.614;10.048;2022-11-12T05:39:06;102879.59;;;12.81;56.29
60654;BME280;46476;53.614;10.048;2022-11-12T05:41:31;102889.53;;;12.69;56.78
60654;BME280;46476;53.614;10.048;2022-11-12T05:43:57;102876.22;;;12.77;56.51
60654;BME280;46476;53.614;10.048;2022-11-12T05:46:22;102879.34;;;12.84;56.27
60654;BME280;46476;53.614;10.048;2022-11-12T05:48:47;102877.16;;;12.89;56.02
60654;BME280;46476;53.614;10.048;2022-11-12T05:51:13;102863.09;;;12.95;55.86
60654;BME280;46476;53.614;10.048;2022-11-12T05:53:39;102862.97;;;12.97;55.79
60654;BME280;46476;53.614;10.048;2022-11-12T05:56:05;102885.38;;;13.00;55.51
60654;BME280;46476;53.614;10.048;2022-11-12T05:58:32;102881.69;;;13.01;55.65
60654;BME280;46476;53.614;10.048;2022-11-12T06:00:58;102887.84;;;13.03;55.07
60654;BME280;46476;53.614;10.048;2022-11-12T06:03:23;102894.00;;;13.18;55.09
60654;BME280;46476;53.614;10.048;2022-11-12T06:05:49;102874.78;;;13.33;54.76
60654;BME280;46476;53.614;10.048;2022-11-12T06:08:15;102885.75;;;13.44;54.37
60654;BME280;46476;53.614;10.048;2022-11-12T06:10:40;102896.13;;;13.50;54.19
60654;BME280;46476;53.614;10.048;2022-11-12T06:13:06;102894.44;;;13.61;53.48
60654;BME280;46476;53.614;10.048;2022-11-12T06:15:31;102889.75;;;13.63;53.39
60654;BME280;46476;53.614;10.048;2022-11-12T06:17:57;102897.66;;;13.66;53.28
60654;BME280;46476;53.614;10.048;2022-11-12T06:20:22;102898.31;;;13.69;53.10
60654;BME280;46476;53.614;10.048;2022-11-12T06:22:48;102899.91;;;13.72;52.93
60654;BME280;46476;53.614;10.048;2022-11-12T06:25:13;102908.22;;;13.70;52.56
60654;BME280;46476;53.614;10.048;2022-11-12T06:27:39;102895.31;;;13.61;53.10
60654;BME280;46476;53.614;10.048;2022-11-12T06:30:05;102896.53;;;13.33;53.76
60654;BME280;46476;53.614;10.048;2022-11-12T06:32:31;102903.72;;;13.34;53.94
60654;BME280;46476;53.614;10.048;2022-11-12T06:34:56;102906.63;;;13.44;53.49
60654;BME280;46476;53.614;10.048;2022-11-12T06:37:22;102910.84;;;13.48;53.15
60654;BME280;46476;53.614;10.048;2022-11-12T06:39:47;102908.63;;;13.53;53.06
60654;BME280;46476;53.614;10.048;2022-11-12T06:42:14;102885.16;;;13.52;53.03
60654;BME280;46476;53.614;10.048;2022-11-12T06:44:39;102898.50;;;13.55;53.03
60654;BME280;46476;53.614;10.048;2022-11-12T06:47:05;102904.81;;;13.56;52.76
60654;BME280;46476;53.614;10.048;2022-11-12T06:49:30;102913.41;;;13.38;53.61
60654;BME280;46476;53.614;10.048;2022-11-12T06:51:55;102921.38;;;13.28;53.87
60654;BME280;46476;53.614;10.048;2022-11-12T06:54:21;102921.28;;;13.30;53.77
60654;BME280;46476;53.614;10.048;2022-11-12T06:56:46;102922.44;;;13.39;53.35
60654;BME280;46476;53.614;10.048;2022-11-12T06:59:11;102926.31;;;13.47;53.15
60654;BME280;46476;53.614;10.048;2022-11-12T07:01:37;102922.25;;;13.53;52.85
60654;BME280;46476;53.614;10.048;2022-11-12T07:04:02;102917.56;;;13.55;52.55
60654;BME280;46476;53.614;10.048;2022-11-12T07:06:28;102941.19;;;13.55;52.64
60654;BME280;46476;53.614;10.048;2022-11-12T07:08:53;102932.00;;;13.44;52.82
60654;BME280;46476;53.614;10.048;2022-11-12T07:11:19;102918.31;;;13.33;53.22
60654;BME280;46476;53.614;10.048;2022-11-12T07:13:45;102923.44;;;13.38;53.01
60654;BME280;46476;53.614;10.048;2022-11-12T07:16:12;102933.53;;;13.35;53.34
60654;BME280;46476;53.614;10.048;2022-11-12T07:18:38;102928.28;;;13.21;53.33
60654;BME280;46476;53.614;10.048;2022-11-12T07:21:09;102929.19;;;13.09;53.95
60654;BME280;46476;53.614;10.048;2022-11-12T07:23:35;102947.13;;;13.11;53.63
60654;BME280;46476;53.614;10.048;2022-11-12T07:26:06;102931.91;;;13.09;53.71
60654;BME280;46476;53.614;10.048;2022-11-12T07:28:32;102938.97;;;13.11;53.61
60654;BME280;46476;53.614;10.048;2022-11-12T07:31:05;102957.31;;;13.20;53.55
60654;BME280;46476;53.614;10.048;2022-11-12T07:33:32;102955.09;;;13.26;53.40
60654;BME280;46476;53.614;10.048;2022-11-12T07:38:24;102944.66;;;13.32;53.36
60654;BME280;46476;53.614;10.048;2022-11-12T07:40:50;102942.50;;;13.38;53.02
60654;BME280;46476;53.614;10.048;2022-11-12T07:43:15;102945.13;;;13.26;53.36
60654;BME280;46476;53.614;10.048;2022-11-12T07:45:41;102948.75;;;13.14;53.62
60654;BME280;46476;53.614;10.048;2022-11-12T07:48:06;102959.63;;;13.14;53.54
60654;BME280;46476;53.614;10.048;2022-11-12T07:50:31;102947.34;;;13.08;53.72
60654;BME280;46476;53.614;10.048;2022-11-12T07:52:58;102933.00;;;13.06;54.09
60654;BME280;46476;53.614;10.048;2022-11-12T07:55:26;102936.69;;;13.05;53.89
60654;BME280;46476;53.614;10.048;2022-11-12T07:57:51;102946.72;;;13.04;54.01
60654;BME280;46476;53.614;10.048;2022-11-12T08:00:17;102955.00;;;13.03;53.90
60654;BME280;46476;53.614;10.048;2022-11-12T08:02:43;102953.47;;;12.99;54.02
60654;BME280;46476;53.614;10.048;2022-11-12T08:05:08;102940.97;;;12.96;54.20
60654;BME280;46476;53.614;10.048;2022-11-12T08:07:33;102933.03;;;12.93;54.27
60654;BME280;46476;53.614;10.048;2022-11-12T08:09:59;102952.84;;;12.95;54.40
60654;BME280;46476;53.614;10.048;2022-11-12T08:12:24;102968.28;;;12.95;54.44
60654;BME280;46476;53.614;10.048;2022-11-12T08:14:49;102965.47;;;12.96;54.50
60654;BME280;46476;53.614;10.048;2022-11-12T08:17:15;102958.16;;;12.97;54.16
60654;BME280;46476;53.614;10.048;2022-11-12T08:19:40;102957.19;;;12.98;54.39
60654;BME280;46476;53.614;10.048;2022-11-12T08:22:05;102960.63;;;13.00;54.64
60654;BME280;46476;53.614;10.048;2022-11-12T08:24:31;102960.63;;;13.00;54.95
60654;BME280;46476;53.614;10.048;2022-11-12T08:26:56;102966.31;;;12.97;54.62
60654;BME280;46476;53.614;10.048;2022-11-12T08:29:21;102974.31;;;12.74;54.84
60654;BME280;46476;53.614;10.048;2022-11-12T08:31:49;102967.47;;;12.55;55.47
60654;BME280;46476;53.614;10.048;2022-11-12T08:34:15;102966.38;;;12.45;56.02
60654;BME280;46476;53.614;10.048;2022-11-12T08:36:40;102960.09;;;12.58;56.14
60654;BME280;46476;53.614;10.048;2022-11-12T08:39:06;102977.34;;;12.69;55.78
60654;BME280;46476;53.614;10.048;2022-11-12T08:41:32;102972.03;;;12.68;55.60
60654;BME280;46476;53.614;10.048;2022-11-12T08:43:57;102959.19;;;12.70;55.85
60654;BME280;46476;53.614;10.048;2022-11-12T08:46:23;102967.31;;;12.83;55.79
60654;BME280;46476;53.614;10.048;2022-11-12T08:48:48;102978.63;;;12.90;55.46
60654;BME280;46476;53.614;10.048;2022-11-12T08:51:13;102987.22;;;12.83;55.48
60654;BME280;46476;53.614;10.048;2022-11-12T08:53:39;102981.91;;;12.82;55.80
60654;BME280;46476;53.614;10.048;2022-11-12T08:56:04;102976.00;;;12.88;55.84
60654;BME280;46476;53.614;10.048;2022-11-12T08:58:30;102984.25;;;12.99;55.36
60654;BME280;46476;53.614;10.048;2022-11-12T09:00:56;102995.25;;;12.98;55.29
60654;BME280;46476;53.614;10.048;2022-11-12T09:03:23;102989.94;;;12.96;55.31
60654;BME280;46476;53.614;10.048;2022-11-12T09:05:50;102984.38;;;12.98;55.30
60654;BME280;46476;53.614;10.048;2022-11-12T09:08:19;102980.78;;;12.97;55.33
60654;BME280;46476;53.614;10.048;2022-11-12T09:10:46;102988.16;;;13.08;55.21
60654;BME280;46476;53.614;10.048;2022-11-12T09:13:11;102983.56;;;13.09;54.99
60654;BME280;46476;53.614;10.048;2022-11-12T09:15:38;102989.00;;;13.09;55.19
60654;BME280;46476;53.614;10.048;2022-11-12T09:18:10;102982.03;;;13.17;55.02
60654;BME280;46476;53.614;10.048;2022-11-12T09:20:36;102993.97;;;13.28;54.67
60654;BME280;46476;53.614;10.048;2022-11-12T09:23:08;102993.38;;;13.35;54.71
60654;BME280;46476;53.614;10.048;2022-11-12T09:25:34;102995.69;;;13.42;54.63
60654;BME280;46476;53.614;10.048;2022-11-12T09:28:10;102991.47;;;13.38;54.28
60654;BME280;46476;53.614;10.048;2022-11-12T09:30:36;102998.63;;;13.39;54.47
60654;BME280;46476;53.614;10.048;2022-11-12T09:33:02;102981.38;;;13.51;54.29
60654;BME280;46476;53.614;10.048;2022-11-12T09:35:28;102982.31;;;13.63;53.93
60654;BME280;46476;53.614;10.048;2022-11-12T09:37:54;102984.44;;;13.70;53.74
60654;BME280;46476;53.614;10.048;2022-11-12T09:40:19;102982.22;;;13.76;53.59
60654;BME280;46476;53.614;10.048;2022-11-12T09:42:50;102989.31;;;13.78;53.44
60654;BME280;46476;53.614;10.048;2022-11-12T09:45:25;102994.88;;;13.77;53.37
60654;BME280;46476;53.614;10.048;2022-11-12T09:48:05;102988.31;;;13.79;53.29
60654;BME280;46476;53.614;10.048;2022-11-12T09:50:39;102983.25;;;13.86;53.64
60654;BME280;46476;53.614;10.048;2022-11-12T09:53:24;102981.78;;;13.93;53.70
60654;BME280;46476;53.614;10.048;2022-11-12T09:55:52;102990.97;;;13.92;53.67
60654;BME280;46476;53.614;10.048;2022-11-12T09:58:18;102996.28;;;13.94;53.58
60654;BME280;46476;53.614;10.048;2022-11-12T10:00:54;103000.63;;;13.96;53.58
60654;BME280;46476;53.614;10.048;2022-11-12T10:03:39;102997.91;;;13.96;53.93
60654;BME280;46476;53.614;10.048;2022-11-12T10:06:28;102990.06;;;13.92;53.55
60654;BME280;46476;53.614;10.048;2022-11-12T10:12:35;102992.72;;;14.05;53.73
60654;BME280;46476;53.614;10.048;2022-11-12T10:18:13;102991.00;;;14.15;53.62
60654;BME280;46476;53.614;10.048;2022-11-12T10:20:55;102993.91;;;14.36;52.89
60654;BME280;46476;53.614;10.048;2022-11-12T10:23:52;102998.53;;;14.58;52.52
60654;BME280;46476;53.614;10.048;2022-11-12T10:26:22;103009.44;;;14.69;52.21
60654;BME280;46476;53.614;10.048;2022-11-12T10:29:02;103009.09;;;14.74;52.70
60654;BME280;46476;53.614;10.048;2022-11-12T10:31:32;103007.22;;;14.86;52.61
60654;BME280;46476;53.614;10.048;2022-11-12T10:34:18;103002.75;;;14.96;52.07
60654;BME280;46476;53.614;10.048;2022-11-12T10:37:06;103004.72;;;14.94;52.17
60654;BME280;46476;53.614;10.048;2022-11-12T10:39:38;103011.19;;;14.82;52.07
60654;BME280;46476;53.614;10.048;2022-11-12T10:42:07;103020.63;;;14.78;52.09
60654;BME280;46476;53.614;10.048;2022-11-12T10:44:34;103022.88;;;14.73;52.34
60654;BME280;46476;53.614;10.048;2022-11-12T10:47:36;103009.72;;;14.66;52.72
60654;BME280;46476;53.614;10.048;2022-11-12T10:52:35;103010.56;;;14.78;52.56
60654;BME280;46476;53.614;10.048;2022-11-12T10:57:39;103019.84;;;14.64;52.52
60654;BME280;46476;53.614;10.048;2022-11-12T11:02:32;103001.00;;;14.61;53.04
60654;BME280;46476;53.614;10.048;2022-11-12T11:04:57;102996.72;;;14.70;53.06
60654;BME280;46476;53.614;10.048;2022-11-12T11:07:24;102996.19;;;14.76;53.01
60654;BME280;46476;53.614;10.048;2022-11-12T11:09:59;102995.69;;;14.82;52.92
60654;BME280;46476;53.614;10.048;2022-11-12T11:12:32;102988.75;;;14.90;53.00
60654;BME280;46476;53.614;10.048;2022-11-12T11:17:36;102984.16;;;15.01;52.70
60654;BME280;46476;53.614;10.048;2022-11-12T11:20:04;102982.03;;;15.05;52.53
60654;BME280;46476;53.614;10.048;2022-11-12T11:23:03;102981.91;;;15.07;52.34
60654;BME280;46476;53.614;10.048;2022-11-12T11:25:32;102983.03;;;15.04;52.34
60654;BME280;46476;53.614;10.048;2022-11-12T11:28:21;102988.63;;;15.02;52.57
60654;BME280;46476;53.614;10.048;2022-11-12T11:31:18;102985.28;;;14.99;52.52
60654;BME280;46476;53.614;10.048;2022-11-12T11:33:55;102974.22;;;15.00;52.58
60654;BME280;46476;53.614;10.048;2022-11-12T11:36:33;102973.75;;;14.95;52.50
60654;BME280;46476;53.614;10.048;2022-11-12T11:48:21;102981.91;;;15.07;52.65
60654;BME280;46476;53.614;10.048;2022-11-12T11:53:49;102990.09;;;15.07;52.20
60654;BME280;46476;53.614;10.048;2022-11-12T11:56:39;102990.34;;;15.04;52.55
60654;BME280;46476;53.614;10.048;2022-11-12T12:04:47;102993.53;;;15.20;52.77
60654;BME280;46476;53.614;10.048;2022-11-12T12:12:48;102993.53;;;15.31;52.67
60654;BME280;46476;53.614;10.048;2022-11-12T12:15:40;102994.28;;;15.33;52.44
60654;BME280;46476;53.614;10.048;2022-11-12T12:21:03;102985.22;;;15.22;52.11
60654;BME280;46476;53.614;10.048;2022-11-12T12:26:06;102981.41;;;15.13;52.46
60654;BME280;46476;53.614;10.048;2022-11-12T12:28:50;102977.94;;;15.11;52.59
60654;BME280;46476;53.614;10.048;2022-11-12T12:31:23;102974.94;;;15.14;52.58
60654;BME280;46476;53.614;10.048;2022-11-12T12:33:52;102972.34;;;15.12;52.64
60654;BME280;46476;53.614;10.048;2022-11-12T12:36:25;102970.38;;;15.03;52.67
60654;BME280;46476;53.614;10.048;2022-11-12T12:41:48;102959.09;;;15.08;52.66
60654;BME280;46476;53.614;10.048;2022-11-12T12:44:16;102963.66;;;15.07;52.64
60654;BME280;46476;53.614;10.048;2022-11-12T12:46:53;102956.38;;;15.08;52.51
60654;BME280;46476;53.614;10.048;2022-11-12T12:49:28;102955.25;;;15.10;52.61
60654;BME280;46476;53.614;10.048;2022-11-12T12:51:55;102948.28;;;15.17;52.64
60654;BME280;46476;53.614;10.048;2022-11-12T13:00:31;102944.03;;;15.25;52.70
60654;BME280;46476;53.614;10.048;2022-11-12T13:02:58;102937.47;;;15.27;53.04
60654;BME280;46476;53.614;10.048;2022-11-12T13:05:37;102938.31;;;15.28;53.15
60654;BME280;46476;53.614;10.048;2022-11-12T13:08:11;102929.28;;;15.27;52.98
60654;BME280;46476;53.614;10.048;2022-11-12T13:13:04;102931.00;;;15.28;52.94
60654;BME280;46476;53.614;10.048;2022-11-12T13:15:43;102929.41;;;15.26;52.81
60654;BME280;46476;53.614;10.048;2022-11-12T13:18:09;102931.38;;;15.24;53.15
60654;BME280;46476;53.614;10.048;2022-11-12T13:20:41;102924.19;;;15.23;53.11
60654;BME280;46476;53.614;10.048;2022-11-12T13:23:09;102923.81;;;15.27;53.82
60654;BME280;46476;53.614;10.048;2022-11-12T13:25:35;102931.00;;;15.28;53.97
60654;BME280;46476;53.614;10.048;2022-11-12T13:35:31;102910.66;;;15.32;54.14
60654;BME280;46476;53.614;10.048;2022-11-12T13:40:54;102914.00;;;15.36;53.84
60654;BME280;46476;53.614;10.048;2022-11-12T13:43:42;102910.66;;;15.32;54.02
60654;BME280;46476;53.614;10.048;2022-11-12T13:48:40;102907.66;;;15.35;54.17
60654;BME280;46476;53.614;10.048;2022-11-12T13:51:19;102908.13;;;15.41;54.22
60654;BME280;46476;53.614;10.048;2022-11-12T13:53:46;102908.13;;;15.41;54.20
60654;BME280;46476;53.614;10.048;2022-11-12T13:56:25;102913.72;;;15.39;53.94
60654;BME280;46476;53.614;10.048;2022-11-12T13:58:50;102910.13;;;15.39;54.02
60654;BME280;46476;53.614;10.048;2022-11-12T14:01:18;102905.38;;;15.41;54.51
60654;BME280;46476;53.614;10.048;2022-11-12T14:03:47;102905.00;;;15.45;54.39
60654;BME280;46476;53.614;10.048;2022-11-12T14:06:21;102906.72;;;15.46;54.11